Burbank, Washington
Current Conditions -  °F | °C
As of 9:53 PM on Sunday 25 Jan 2015 (Local Time) from KPSC Reporting Station
Haze Haze  
Wind Chill: 39°   Ceiling: 500
Heat Index: 39°   Visibility: 4mi
Dew Point: 39°   Wind: 3mph
Humidity: 100%   Direction: 320°NW
Pressure: 30.2"   Gusts: NA
Location:  46.2°N, 119.02°W
Report Text: KPSC 260553Z 32003KT 4SM BR OVC005 04/04 A3020 RMK AO2 SLP230 T00390039 10056 20039 55001
Loading
Personal Weather Stations






























Interactive Weather Map New forecast layout! Learn more

10-Day Weather Forecast

Advertisements
Track Severe Weather on mobile